Time,TemperatureF,DewpointF,PressureIn,WindDirection,WindDirectionDegrees,WindSpeedMPH,WindSpeedGustMPH,Humidity,HourlyPrecipIn,Conditions,Clouds,dailyrainin,SoftwareType,DateUTC
2013-01-17 06:42:00,9.2,5.6,30.82,ESE,106,0.0,0.0,85,0.00,,,0.00,Wunderground v.1.15,2013-01-17 14:42:00,
2013-01-17 06:44:00,9.2,5.6,30.82,ESE,106,0.0,0.0,85,0.00,,,0.00,Wunderground v.1.15,2013-01-17 14:44:00,
2013-01-17 06:48:00,9.2,5.6,30.82,ESE,106,0.0,0.0,85,0.00,,,0.00,Wunderground v.1.15,2013-01-17 14:48:00,
2013-01-17 06:53:00,9.2,5.3,30.82,ESE,106,0.0,0.0,84,0.00,,,0.00,Wunderground v.1.15,2013-01-17 14:53:00,
2013-01-17 07:00:00,9.0,4.9,30.82,ESE,106,0.0,0.0,83,0.00,,,0.00,Wunderground v.1.15,2013-01-17 15:00:00,
2013-01-17 07:06:00,8.4,4.0,30.83,ESE,106,0.0,0.0,82,0.00,,,0.00,Wunderground v.1.15,2013-01-17 15:06:00,
2013-01-17 07:12:00,8.1,3.7,30.83,ESE,106,0.0,0.0,82,0.00,,,0.00,Wunderground v.1.15,2013-01-17 15:12:00,
2013-01-17 07:18:00,7.7,3.4,30.85,ESE,106,0.0,0.0,82,0.00,,,0.00,Wunderground v.1.15,2013-01-17 15:18:00,
2013-01-17 07:24:00,7.6,3.3,30.85,ESE,106,0.0,0.0,82,0.00,,,0.00,Wunderground v.1.15,2013-01-17 15:24:00,
2013-01-17 07:30:00,7.6,3.5,30.85,ESE,106,0.0,0.0,83,0.00,,,0.00,Wunderground v.1.15,2013-01-17 15:30:00,
2013-01-17 07:35:00,7.7,3.6,30.86,ESE,106,0.0,0.0,83,0.00,,,0.00,Wunderground v.1.15,2013-01-17 15:35:00,
2013-01-17 07:42:00,7.7,3.6,30.86,ESE,106,0.0,0.0,83,0.00,,,0.00,Wunderground v.1.15,2013-01-17 15:42:00,
2013-01-17 07:48:00,7.9,4.1,30.86,ESE,106,0.0,0.0,84,0.00,,,0.00,Wunderground v.1.15,2013-01-17 15:48:00,
2013-01-17 07:54:00,7.9,4.1,30.86,ESE,106,0.0,0.0,84,0.00,,,0.00,Wunderground v.1.15,2013-01-17 15:54:00,
2013-01-17 08:00:00,8.3,4.5,30.86,ESE,103,0.0,0.0,84,0.00,,,0.00,Wunderground v.1.15,2013-01-17 16:00:00,
2013-01-17 08:06:00,8.8,5.2,30.87,ESE,103,0.0,0.0,85,0.00,,,0.00,Wunderground v.1.15,2013-01-17 16:06:00,
2013-01-17 08:11:00,9.2,5.9,30.87,ESE,103,0.0,0.0,86,0.00,,,0.00,Wunderground v.1.15,2013-01-17 16:11:00,
2013-01-17 08:18:00,9.9,6.6,30.88,ESE,103,0.0,0.0,86,0.00,,,0.00,Wunderground v.1.15,2013-01-17 16:18:00,
2013-01-17 08:24:00,10.4,7.0,30.88,ESE,103,0.0,0.0,86,0.00,,,0.00,Wunderground v.1.15,2013-01-17 16:24:00,
2013-01-17 08:30:00,10.9,7.5,30.88,ESE,104,0.0,0.0,86,0.00,,,0.00,Wunderground v.1.15,2013-01-17 16:30:00,
2013-01-17 08:36:00,11.6,8.5,30.87,ESE,103,0.0,0.0,87,0.00,,,0.00,Wunderground v.1.15,2013-01-17 16:36:00,
2013-01-17 08:42:00,12.3,9.4,30.87,ESE,104,0.0,1.0,88,0.00,,,0.00,Wunderground v.1.15,2013-01-17 16:42:00,
2013-01-17 08:48:00,13.1,10.2,30.86,ESE,104,0.0,1.0,88,0.00,,,0.00,Wunderground v.1.15,2013-01-17 16:48:00,
2013-01-17 08:53:00,13.8,10.9,30.86,ESE,104,0.0,0.0,88,0.00,,,0.00,Wunderground v.1.15,2013-01-17 16:53:00,
2013-01-17 09:00:00,14.4,11.5,30.87,ESE,104,0.0,0.0,88,0.00,,,0.00,Wunderground v.1.15,2013-01-17 17:00:00,